createdAt,value
2023-04-12T00:00:34.420Z,99223.75
2023-04-12T00:03:08.130Z,99226.44
2023-04-12T00:05:38.712Z,99228.00
2023-04-12T00:08:10.918Z,99238.06
2023-04-12T00:10:39.856Z,99228.97
2023-04-12T00:13:08.412Z,99230.34
2023-04-12T00:15:37.107Z,99238.69
2023-04-12T00:18:05.775Z,99228.06
2023-04-12T00:20:34.344Z,99231.16
2023-04-12T00:23:04.183Z,99226.53
2023-04-12T00:25:33.394Z,99222.84
2023-04-12T00:28:02.153Z,99212.19
2023-04-12T00:30:30.646Z,99213.72
2023-04-12T00:32:59.817Z,99210.84
2023-04-12T00:35:28.434Z,99214.06
2023-04-12T00:37:56.764Z,99217.47
2023-04-12T00:40:26.963Z,99213.13
2023-04-12T00:42:55.394Z,99206.31
2023-04-12T00:45:23.780Z,99210.84
2023-04-12T00:47:53.116Z,99211.09
2023-04-12T00:50:23.394Z,99209.63
2023-04-12T00:52:55.645Z,99209.25
2023-04-12T00:55:24.521Z,99208.69
2023-04-12T00:57:55.730Z,99217.53
2023-04-12T01:00:24.035Z,99212.56
2023-04-12T01:02:53.250Z,99209.25
2023-04-12T01:05:24.503Z,99213.69
2023-04-12T01:08:07.252Z,99212.13
2023-04-12T01:10:46.421Z,99208.06
2023-04-12T01:13:30.180Z,99207.41
2023-04-12T01:16:09.614Z,99213.56
2023-04-12T01:18:43.033Z,99215.25
2023-04-12T01:21:17.495Z,99225.63
2023-04-12T01:24:00.103Z,99223.00
2023-04-12T01:26:38.005Z,99224.88
2023-04-12T01:29:12.083Z,99224.94
2023-04-12T01:31:42.920Z,99220.66
2023-04-12T01:34:14.798Z,99215.41
2023-04-12T01:36:46.815Z,99212.81
2023-04-12T01:39:15.695Z,99210.34
2023-04-12T01:41:45.778Z,99209.41
2023-04-12T01:44:17.134Z,99206.03
2023-04-12T01:46:46.996Z,99207.84
2023-04-12T01:49:16.653Z,99203.72
2023-04-12T01:51:53.563Z,99202.00
2023-04-12T01:54:25.893Z,99199.50
2023-04-12T01:56:58.557Z,99203.72
2023-04-12T01:59:33.519Z,99219.47
2023-04-12T02:02:03.651Z,99224.63
2023-04-12T02:04:35.977Z,99208.03
2023-04-12T02:07:05.197Z,99214.00
2023-04-12T02:09:38.416Z,99208.78
2023-04-12T02:12:07.799Z,99221.72
2023-04-12T02:14:39.082Z,99219.94
2023-04-12T02:17:08.853Z,99212.94
2023-04-12T02:19:38.840Z,99214.63
2023-04-12T02:22:08.494Z,99226.69
2023-04-12T02:24:37.106Z,99227.53
2023-04-12T02:27:06.189Z,99227.53
2023-04-12T02:29:36.139Z,99228.31
2023-04-12T02:32:06.245Z,99230.03
2023-04-12T02:34:36.829Z,99227.41
2023-04-12T02:37:18.088Z,99235.25
2023-04-12T02:39:46.634Z,99237.00
2023-04-12T02:42:15.556Z,99233.53
2023-04-12T02:44:48.064Z,99239.69
2023-04-12T02:47:18.697Z,99238.94
2023-04-12T02:49:50.790Z,99233.00
2023-04-12T02:52:20.632Z,99226.25
2023-04-12T02:55:02.201Z,99228.91
2023-04-12T02:57:31.930Z,99230.66
2023-04-12T03:00:01.906Z,99223.84
2023-04-12T03:02:42.025Z,99229.13
2023-04-12T03:05:17.855Z,99228.28
2023-04-12T03:07:47.446Z,99219.59
2023-04-12T03:10:18.150Z,99223.97
2023-04-12T03:12:53.053Z,99221.34
2023-04-12T03:15:23.775Z,99220.59
2023-04-12T03:17:56.241Z,99227.56
2023-04-12T03:20:30.922Z,99229.28
2023-04-12T03:23:09.022Z,99231.97
2023-04-12T03:25:41.303Z,99241.41
2023-04-12T03:28:40.167Z,99234.34
2023-04-12T03:31:09.365Z,99235.13
2023-04-12T03:33:47.947Z,99233.22
2023-04-12T03:36:24.200Z,99236.59
2023-04-12T03:39:02.497Z,99240.00
2023-04-12T03:41:34.249Z,99245.97
2023-04-12T03:44:07.536Z,99245.13
2023-04-12T03:46:37.996Z,99242.59
2023-04-12T03:49:13.510Z,99241.81
2023-04-12T03:51:44.718Z,99247.25
2023-04-12T03:54:14.286Z,99255.25
2023-04-12T03:56:58.311Z,99250.09
2023-04-12T03:59:47.376Z,99243.34
2023-04-12T04:02:18.199Z,99247.41
2023-04-12T04:04:53.145Z,99243.78
2023-04-12T04:07:28.223Z,99249.88
2023-04-12T04:09:58.370Z,99250.75
2023-04-12T04:12:32.122Z,99247.34
2023-04-12T04:15:01.250Z,99252.56
2023-04-12T04:17:33.664Z,99261.19
2023-04-12T04:20:05.942Z,99255.03
2023-04-12T04:22:37.593Z,99263.69
2023-04-12T04:25:08.263Z,99267.16
2023-04-12T04:27:40.980Z,99267.09
2023-04-12T04:30:11.605Z,99275.69
2023-04-12T04:32:45.201Z,99269.63
2023-04-12T04:35:18.115Z,99267.91
2023-04-12T04:38:00.762Z,99265.41
2023-04-12T04:40:30.289Z,99269.63
2023-04-12T04:42:59.542Z,99267.91
2023-04-12T04:45:36.648Z,99265.41
2023-04-12T04:48:05.855Z,99271.53
2023-04-12T04:50:36.308Z,99264.56
2023-04-12T04:53:06.060Z,99266.31
2023-04-12T04:55:36.404Z,99285.31
2023-04-12T04:58:06.752Z,99280.78
2023-04-12T05:00:36.799Z,99279.84
2023-04-12T05:03:05.790Z,99275.56
2023-04-12T05:05:36.962Z,99277.09
2023-04-12T05:08:12.511Z,99270.75
2023-04-12T05:10:41.556Z,99274.81
2023-04-12T05:13:11.213Z,99271.19
2023-04-12T05:15:42.755Z,99274.41
2023-04-12T05:18:11.438Z,99272.34
2023-04-12T05:20:42.260Z,99267.72
2023-04-12T05:23:11.276Z,99274.34
2023-04-12T05:25:47.298Z,99267.22
2023-04-12T05:28:17.735Z,99270.28
2023-04-12T05:30:47.303Z,99267.59
2023-04-12T05:33:21.807Z,99272.59
2023-04-12T05:35:52.758Z,99270.66
2023-04-12T05:38:21.906Z,99269.75
2023-04-12T05:40:55.511Z,99269.59
2023-04-12T05:43:25.833Z,99270.25
2023-04-12T05:45:54.591Z,99264.97
2023-04-12T05:48:25.452Z,99265.81
2023-04-12T05:50:58.404Z,99265.56
2023-04-12T05:53:30.039Z,99267.91
2023-04-12T05:56:02.980Z,99265.88
2023-04-12T05:58:32.052Z,99266.81
2023-04-12T06:01:01.315Z,99272.81
2023-04-12T06:03:32.578Z,99276.09
2023-04-12T06:06:12.155Z,99285.41
2023-04-12T06:08:41.720Z,99279.50
2023-04-12T06:11:12.304Z,99279.31
2023-04-12T06:13:43.512Z,99275.63
2023-04-12T06:16:13.915Z,99277.00
2023-04-12T06:18:43.153Z,99277.84
2023-04-12T06:21:14.595Z,99276.84
2023-04-12T06:23:44.249Z,99279.56
2023-04-12T06:26:14.485Z,99270.44
2023-04-12T06:28:43.662Z,99266.91
2023-04-12T06:31:14.601Z,99268.63
2023-04-12T06:33:44.911Z,99271.75
2023-04-12T06:36:16.438Z,99274.03
2023-04-12T06:38:45.547Z,99279.94
2023-04-12T06:41:15.658Z,99285.03
2023-04-12T06:43:44.620Z,99294.31
2023-04-12T06:46:15.744Z,99295.09
2023-04-12T06:48:44.531Z,99298.19
2023-04-12T06:51:13.846Z,99303.06
2023-04-12T06:53:45.285Z,99296.28
2023-04-12T06:56:17.904Z,99294.78
2023-04-12T06:58:47.717Z,99293.78
2023-04-12T07:01:18.020Z,99300.44
2023-04-12T07:03:47.681Z,99301.97
2023-04-12T07:06:24.930Z,99293.28
2023-04-12T07:08:56.495Z,99298.53
2023-04-12T07:11:25.935Z,99306.28
2023-04-12T07:13:55.727Z,99312.78
2023-04-12T07:16:24.478Z,99320.94
2023-04-12T07:18:55.582Z,99322.78
2023-04-12T07:21:24.434Z,99332.25
2023-04-12T07:23:54.028Z,99321.78
2023-04-12T07:26:24.604Z,99316.53
2023-04-12T07:28:54.977Z,99308.69
2023-04-12T07:31:24.542Z,99319.69
2023-04-12T07:33:56.703Z,99314.91
2023-04-12T07:36:27.589Z,99318.13
2023-04-12T07:38:56.775Z,99321.34
2023-04-12T07:41:27.271Z,99317.88
2023-04-12T07:43:57.062Z,99318.13
2023-04-12T07:46:25.876Z,99319.13
2023-04-12T07:48:54.837Z,99320.28
2023-04-12T07:51:27.063Z,99311.63
2023-04-12T07:53:56.628Z,99312.63
2023-04-12T07:56:27.682Z,99304.13
2023-04-12T07:58:56.928Z,99304.25
2023-04-12T08:01:26.205Z,99304.06
2023-04-12T08:03:54.862Z,99305.66
2023-04-12T08:06:25.414Z,99296.91
2023-04-12T08:08:55.364Z,99302.56
2023-04-12T08:11:25.019Z,99301.41
2023-04-12T08:13:55.635Z,99302.28
2023-04-12T08:16:25.008Z,99302.09
2023-04-12T08:18:54.423Z,99302.88
2023-04-12T08:21:23.497Z,99298.38
2023-04-12T08:23:53.214Z,99301.44
2023-04-12T08:26:22.228Z,99305.50
2023-04-12T08:28:50.999Z,99317.34
2023-04-12T08:31:21.389Z,99306.09
2023-04-12T08:33:50.972Z,99298.94
2023-04-12T08:36:20.050Z,99295.88
2023-04-12T08:38:52.674Z,99298.94
2023-04-12T08:41:21.934Z,99300.13
2023-04-12T08:43:52.732Z,99303.59
2023-04-12T08:46:26.286Z,99307.13
2023-04-12T08:48:57.323Z,99303.47
2023-04-12T08:51:27.007Z,99313.97
2023-04-12T08:53:56.541Z,99312.13
2023-04-12T08:56:28.690Z,99314.50
2023-04-12T08:58:58.556Z,99311.81
2023-04-12T09:01:29.087Z,99314.34
2023-04-12T09:03:58.124Z,99318.66
2023-04-12T09:06:27.245Z,99315.78
2023-04-12T09:08:57.436Z,99310.19
2023-04-12T09:11:27.559Z,99313.16
2023-04-12T09:13:58.905Z,99304.50
2023-04-12T09:16:40.862Z,99298.91
2023-04-12T09:19:10.637Z,99300.22
2023-04-12T09:21:53.986Z,99305.34
2023-04-12T09:24:24.515Z,99298.13
2023-04-12T09:27:03.304Z,99300.28
2023-04-12T09:29:33.552Z,99297.28
2023-04-12T09:32:06.520Z,99301.78
2023-04-12T09:34:37.317Z,99300.28
2023-04-12T09:37:16.251Z,99300.94
2023-04-12T09:39:45.997Z,99301.78
2023-04-12T09:42:32.319Z,99296.72
2023-04-12T09:45:20.362Z,99291.22
2023-04-12T09:47:51.381Z,99291.13
2023-04-12T09:50:24.882Z,99299.59
2023-04-12T09:52:57.644Z,99291.41
2023-04-12T09:55:27.584Z,99288.44
2023-04-12T09:57:57.399Z,99287.59
2023-04-12T10:00:28.409Z,99281.00
2023-04-12T10:02:58.898Z,99292.16
2023-04-12T10:05:28.299Z,99293.78
2023-04-12T10:08:00.916Z,99290.38
2023-04-12T10:10:32.887Z,99286.84
2023-04-12T10:13:02.669Z,99293.78
2023-04-12T10:15:33.869Z,99283.81
2023-04-12T10:18:09.626Z,99284.06
2023-04-12T10:20:42.208Z,99287.47
2023-04-12T10:23:14.074Z,99289.81
2023-04-12T10:25:44.381Z,99290.59
2023-04-12T10:28:19.015Z,99279.97
2023-04-12T10:30:53.437Z,99288.88
2023-04-12T10:33:28.181Z,99289.44
2023-04-12T10:36:00.830Z,99292.19
2023-04-12T10:38:35.339Z,99290.03
2023-04-12T10:41:21.621Z,99287.97
2023-04-12T10:43:51.386Z,99286.25
2023-04-12T10:46:50.908Z,99283.94
2023-04-12T10:49:21.266Z,99275.63
2023-04-12T10:52:16.449Z,99283.31
2023-04-12T10:54:45.533Z,99285.38
2023-04-12T10:57:45.423Z,99280.97
2023-04-12T11:00:16.398Z,99276.59
2023-04-12T11:03:12.756Z,99281.06
2023-04-12T11:06:12.746Z,99275.56
2023-04-12T11:09:17.894Z,99284.47
2023-04-12T11:11:48.068Z,99273.75
2023-04-12T11:14:18.068Z,99281.84
2023-04-12T11:17:25.458Z,99279.31
2023-04-12T11:19:58.484Z,99275.03
2023-04-12T11:22:30.815Z,99266.59
2023-04-12T11:25:01.177Z,99275.97
2023-04-12T11:27:32.095Z,99273.44
2023-04-12T11:30:02.392Z,99271.09
2023-04-12T11:32:35.606Z,99264.03
2023-04-12T11:35:04.572Z,99261.22
2023-04-12T11:37:39.630Z,99258.47
2023-04-12T11:40:10.770Z,99256.75
2023-04-12T11:42:42.082Z,99261.84
2023-04-12T11:45:17.826Z,99258.88
2023-04-12T11:47:48.226Z,99260.03
2023-04-12T11:50:31.414Z,99253.44
2023-04-12T11:53:13.593Z,99247.50
2023-04-12T11:55:43.065Z,99245.81
2023-04-12T11:58:12.730Z,99245.81
2023-04-12T12:00:43.411Z,99246.50
2023-04-12T12:03:13.179Z,99241.81
2023-04-12T12:05:43.739Z,99238.56
2023-04-12T12:08:14.659Z,99227.69
2023-04-12T12:10:59.987Z,99235.97
2023-04-12T12:13:46.012Z,99240.06
2023-04-12T12:16:14.728Z,99243.50
2023-04-12T12:18:44.264Z,99240.81
2023-04-12T12:21:14.689Z,99241.78
2023-04-12T12:23:48.016Z,99234.72
2023-04-12T12:26:22.929Z,99234.88
2023-04-12T12:28:53.146Z,99225.19
2023-04-12T12:31:23.485Z,99220.16
2023-04-12T12:33:57.256Z,99215.66
2023-04-12T12:36:32.854Z,99216.44
2023-04-12T12:39:10.817Z,99219.75
2023-04-12T12:41:41.463Z,99214.34
2023-04-12T12:44:11.504Z,99217.44
2023-04-12T12:46:53.491Z,99203.84
2023-04-12T12:49:25.077Z,99203.72
2023-04-12T12:51:54.064Z,99196.47
2023-04-12T12:54:39.657Z,99194.13
2023-04-12T12:57:10.957Z,99200.66
2023-04-12T12:59:39.795Z,99188.78
2023-04-12T13:02:09.414Z,99193.13
2023-04-12T13:04:40.735Z,99186.38
2023-04-12T13:07:10.165Z,99183.94
2023-04-12T13:09:42.794Z,99181.94
2023-04-12T13:12:12.235Z,99180.75
2023-04-12T13:14:42.072Z,99175.00
2023-04-12T13:17:11.662Z,99172.59
2023-04-12T13:19:41.088Z,99176.44
2023-04-12T13:22:12.820Z,99161.69
2023-04-12T13:24:44.732Z,99161.91
2023-04-12T13:27:15.386Z,99169.78
2023-04-12T13:29:44.528Z,99168.91
2023-04-12T13:32:14.359Z,99163.50
2023-04-12T13:34:44.345Z,99156.97
2023-04-12T13:37:13.457Z,99158.50
2023-04-12T13:39:45.146Z,99157.63
2023-04-12T13:42:14.954Z,99156.72
2023-04-12T13:44:45.281Z,99152.25
2023-04-12T13:47:14.780Z,99152.25
2023-04-12T13:49:43.657Z,99150.00
2023-04-12T13:52:12.951Z,99152.47
2023-04-12T13:54:43.658Z,99154.38
2023-04-12T13:57:12.728Z,99149.38
2023-04-12T13:59:41.630Z,99158.81
2023-04-12T14:02:11.577Z,99143.75
2023-04-12T14:04:53.137Z,99150.31
2023-04-12T14:07:23.347Z,99144.75
2023-04-12T14:09:55.925Z,99143.25
2023-04-12T14:12:24.932Z,99140.53
2023-04-12T14:14:53.959Z,99143.16
2023-04-12T14:17:23.221Z,99146.88
2023-04-12T14:19:53.334Z,99140.22
2023-04-12T14:22:22.724Z,99143.75
2023-04-12T14:24:55.773Z,99145.75
2023-04-12T14:27:24.878Z,99137.53
2023-04-12T14:29:54.850Z,99138.75
2023-04-12T14:32:23.845Z,99147.00
2023-04-12T14:34:53.170Z,99142.44
2023-04-12T14:37:22.250Z,99138.59
2023-04-12T14:39:54.576Z,99132.81
2023-04-12T14:42:25.687Z,99132.94
2023-04-12T14:44:54.694Z,99140.94
2023-04-12T14:47:25.237Z,99139.97
2023-04-12T14:49:53.970Z,99140.44
2023-04-12T14:52:25.427Z,99142.69
2023-04-12T14:54:54.837Z,99144.69
2023-04-12T14:57:26.131Z,99144.75
2023-04-12T14:59:56.884Z,99147.66
2023-04-12T15:02:26.440Z,99146.59
2023-04-12T15:04:55.838Z,99144.72
2023-04-12T15:07:24.920Z,99147.97
2023-04-12T15:09:57.573Z,99158.53
2023-04-12T15:12:29.358Z,99141.50
2023-04-12T15:14:58.410Z,99142.69
2023-04-12T15:17:27.344Z,99146.38
2023-04-12T15:19:58.009Z,99145.53
2023-04-12T15:22:27.090Z,99142.94
2023-04-12T15:24:58.090Z,99139.34
2023-04-12T15:27:28.445Z,99133.28
2023-04-12T15:29:57.350Z,99133.94
2023-04-12T15:32:27.580Z,99136.28
2023-04-12T15:34:57.481Z,99128.28
2023-04-12T15:37:26.857Z,99128.88
2023-04-12T15:39:55.533Z,99130.13
2023-04-12T15:42:24.729Z,99128.19
2023-04-12T15:44:54.962Z,99133.22
2023-04-12T15:47:25.006Z,99128.59
2023-04-12T15:49:54.651Z,99131.84
2023-04-12T15:52:24.498Z,99131.22
2023-04-12T15:54:56.616Z,99128.69
2023-04-12T15:57:27.744Z,99137.94
2023-04-12T15:59:59.809Z,99139.34
2023-04-12T16:02:32.429Z,99137.53
2023-04-12T16:05:01.949Z,99137.13
2023-04-12T16:07:31.135Z,99136.91
2023-04-12T16:10:00.770Z,99138.41
2023-04-12T16:12:29.376Z,99130.28
2023-04-12T16:15:00.210Z,99131.31
2023-04-12T16:17:28.915Z,99138.50
2023-04-12T16:19:58.633Z,99139.66
2023-04-12T16:22:27.507Z,99136.25
2023-04-12T16:24:56.589Z,99136.25
2023-04-12T16:27:29.575Z,99132.69
2023-04-12T16:29:59.760Z,99132.91
2023-04-12T16:32:29.164Z,99134.25
2023-04-12T16:34:57.737Z,99134.69
2023-04-12T16:37:29.850Z,99133.41
2023-04-12T16:39:59.081Z,99125.94
2023-04-12T16:42:31.904Z,99127.06
2023-04-12T16:45:05.946Z,99123.38
2023-04-12T16:47:35.411Z,99125.75
2023-04-12T16:50:05.222Z,99120.38
2023-04-12T16:52:34.146Z,99129.81
2023-04-12T16:55:02.985Z,99131.25
2023-04-12T16:57:33.205Z,99129.13
2023-04-12T17:00:02.984Z,99131.25
2023-04-12T17:02:33.918Z,99133.56
2023-04-12T17:05:04.585Z,99139.38
2023-04-12T17:07:33.676Z,99132.09
2023-04-12T17:10:03.536Z,99136.25
2023-04-12T17:12:35.416Z,99136.81
2023-04-12T17:15:05.550Z,99142.81
2023-04-12T17:17:36.562Z,99141.69
2023-04-12T17:20:09.055Z,99145.63
2023-04-12T17:22:37.853Z,99145.25
2023-04-12T17:25:08.725Z,99144.88
2023-04-12T17:27:37.760Z,99139.44
2023-04-12T17:30:08.902Z,99142.59
2023-04-12T17:32:40.401Z,99138.00
2023-04-12T17:35:10.550Z,99142.84
2023-04-12T17:37:39.414Z,99138.06
2023-04-12T17:40:10.640Z,99136.91
2023-04-12T17:42:41.527Z,99141.75
2023-04-12T17:45:12.906Z,99136.25
2023-04-12T17:47:44.023Z,99129.59
2023-04-12T17:50:13.849Z,99138.28
2023-04-12T17:52:42.664Z,99130.72
2023-04-12T17:55:12.628Z,99135.19
2023-04-12T17:57:41.675Z,99137.41
2023-04-12T18:00:12.150Z,99136.91
2023-04-12T18:02:46.891Z,99136.06
2023-04-12T18:05:15.687Z,99146.88
2023-04-12T18:07:45.189Z,99137.59
2023-04-12T18:10:21.459Z,99135.91
2023-04-12T18:12:50.605Z,99135.13
2023-04-12T18:15:19.490Z,99134.47
2023-04-12T18:17:50.523Z,99133.72
2023-04-12T18:20:19.624Z,99140.13
2023-04-12T18:22:48.730Z,99141.56
2023-04-12T18:25:19.765Z,99137.84
2023-04-12T18:27:49.593Z,99138.56
2023-04-12T18:30:19.765Z,99131.81
2023-04-12T18:32:50.387Z,99141.28
2023-04-12T18:35:19.608Z,99144.22
2023-04-12T18:37:49.003Z,99148.06
2023-04-12T18:40:21.785Z,99138.94
2023-04-12T18:42:52.232Z,99145.69
2023-04-12T18:45:21.270Z,99140.16
2023-04-12T18:47:54.039Z,99148.00
2023-04-12T18:50:23.651Z,99136.59
2023-04-12T18:52:53.203Z,99135.75
2023-04-12T18:55:22.054Z,99131.53
2023-04-12T18:57:50.788Z,99127.38
2023-04-12T19:00:21.500Z,99129.44
2023-04-12T19:02:51.890Z,99129.97
2023-04-12T19:05:21.932Z,99125.31
2023-04-12T19:07:52.164Z,99130.25
2023-04-12T19:10:24.410Z,99126.34
2023-04-12T19:12:53.241Z,99125.66
2023-04-12T19:15:22.565Z,99121.50
2023-04-12T19:17:55.120Z,99129.53
2023-04-12T19:20:27.049Z,99127.38
2023-04-12T19:22:55.872Z,99136.09
2023-04-12T19:25:29.773Z,99129.88
2023-04-12T19:28:00.142Z,99114.84
2023-04-12T19:30:33.508Z,99114.66
2023-04-12T19:33:04.458Z,99110.06
2023-04-12T19:35:35.614Z,99108.72
2023-04-12T19:38:05.112Z,99104.84
2023-04-12T19:40:34.517Z,99096.47
2023-04-12T19:43:03.448Z,99096.53
2023-04-12T19:45:32.252Z,99094.84
2023-04-12T19:48:02.120Z,99094.06
2023-04-12T19:50:32.852Z,99087.38
2023-04-12T19:53:02.025Z,99085.88
2023-04-12T19:55:31.434Z,99092.22
2023-04-12T19:58:01.576Z,99086.34
2023-04-12T20:00:30.393Z,99090.88
2023-04-12T20:03:02.024Z,99091.28
2023-04-12T20:05:32.976Z,99082.94
2023-04-12T20:08:01.594Z,99075.47
2023-04-12T20:10:30.380Z,99088.75
2023-04-12T20:13:00.108Z,99085.00
2023-04-12T20:15:28.901Z,99079.19
2023-04-12T20:17:58.421Z,99080.13
2023-04-12T20:20:27.085Z,99091.41
2023-04-12T20:22:59.043Z,99081.31
2023-04-12T20:25:27.695Z,99082.31
2023-04-12T20:27:56.671Z,99081.50
2023-04-12T20:30:27.852Z,99078.97
2023-04-12T20:32:57.646Z,99072.84
2023-04-12T20:35:26.808Z,99077.03
2023-04-12T20:37:57.845Z,99073.41
2023-04-12T20:40:29.890Z,99072.31
2023-04-12T20:42:58.887Z,99080.75
2023-04-12T20:45:28.214Z,99069.75
2023-04-12T20:47:56.773Z,99061.44
2023-04-12T20:50:25.923Z,99069.53
2023-04-12T20:52:56.406Z,99061.19
2023-04-12T20:55:34.265Z,99077.88
2023-04-12T20:58:04.392Z,99073.75
2023-04-12T21:00:34.026Z,99085.19
2023-04-12T21:03:03.431Z,99085.34
2023-04-12T21:05:33.875Z,99075.22
2023-04-12T21:08:03.370Z,99079.81
2023-04-12T21:10:33.260Z,99083.50
2023-04-12T21:13:03.101Z,99090.63
2023-04-12T21:15:35.636Z,99089.31
2023-04-12T21:18:04.676Z,99093.72
2023-04-12T21:20:37.150Z,99097.31
2023-04-12T21:23:08.349Z,99094.75
2023-04-12T21:25:38.856Z,99090.38
2023-04-12T21:28:07.913Z,99089.38
2023-04-12T21:30:37.385Z,99080.59
2023-04-12T21:33:06.114Z,99078.59
2023-04-12T21:35:35.229Z,99075.69
2023-04-12T21:38:03.979Z,99076.25
2023-04-12T21:40:32.401Z,99073.53
2023-04-12T21:43:02.755Z,99067.41
2023-04-12T21:45:31.776Z,99064.88
2023-04-12T21:48:00.677Z,99063.50
2023-04-12T21:50:29.127Z,99057.75
2023-04-12T21:52:57.711Z,99052.81
2023-04-12T21:55:28.844Z,99055.56
2023-04-12T21:57:57.303Z,99054.84
2023-04-12T22:00:27.528Z,99064.44
2023-04-12T22:02:56.681Z,99058.53
2023-04-12T22:05:25.564Z,99052.69
2023-04-12T22:07:54.178Z,99051.97
2023-04-12T22:10:22.804Z,99045.78
2023-04-12T22:12:51.408Z,99044.72
2023-04-12T22:15:20.122Z,99046.25
2023-04-12T22:17:50.203Z,99045.50
2023-04-12T22:20:19.118Z,99049.06
2023-04-12T22:22:47.866Z,99045.84
2023-04-12T22:25:18.506Z,99046.16
2023-04-12T22:27:48.034Z,99046.88
2023-04-12T22:30:16.851Z,99045.75
2023-04-12T22:32:45.458Z,99041.16
2023-04-12T22:35:16.088Z,99039.16
2023-04-12T22:37:44.953Z,99050.00
2023-04-12T22:40:14.390Z,99039.25
2023-04-12T22:42:47.539Z,99042.44
2023-04-12T22:45:17.706Z,99025.81
2023-04-12T22:47:46.753Z,99021.47
2023-04-12T22:50:16.747Z,99020.47
2023-04-12T22:52:45.450Z,99017.72
2023-04-12T22:55:17.263Z,99015.00
2023-04-12T22:57:47.136Z,99021.97
2023-04-12T23:00:18.331Z,99013.44
2023-04-12T23:02:48.725Z,99009.22
2023-04-12T23:05:20.036Z,99008.38
2023-04-12T23:07:49.591Z,99005.00
2023-04-12T23:10:18.491Z,98999.09
2023-04-12T23:12:49.301Z,98994.72
2023-04-12T23:15:18.317Z,98996.53
2023-04-12T23:17:46.873Z,98985.50
2023-04-12T23:20:16.105Z,98982.31
2023-04-12T23:22:57.724Z,98982.75
2023-04-12T23:25:39.619Z,98983.22
2023-04-12T23:28:13.493Z,98980.13
2023-04-12T23:30:44.644Z,98986.06
2023-04-12T23:33:13.202Z,98984.25
2023-04-12T23:35:42.246Z,98972.19
2023-04-12T23:38:16.172Z,98974.97
2023-04-12T23:40:44.725Z,98972.69
2023-04-12T23:43:13.665Z,98972.13
2023-04-12T23:45:42.271Z,98966.13
2023-04-12T23:48:10.988Z,98960.44
2023-04-12T23:50:40.436Z,98959.97
2023-04-12T23:53:08.951Z,98961.25
2023-04-12T23:55:39.185Z,98960.59
2023-04-12T23:58:08.517Z,98964.25
